sensor_id;sensor_type;location;lat;lon;timestamp;pressure;altitude;pressure_sealevel;temperature;humidity
27429;BME280;14881;48.092;11.574;2023-08-06T00:00:10;94860.97;;;14.04;100.00
27429;BME280;14881;48.092;11.574;2023-08-06T00:02:36;94860.53;;;14.02;100.00
27429;BME280;14881;48.092;11.574;2023-08-06T00:05:03;94867.06;;;14.09;100.00
27429;BME280;14881;48.092;11.574;2023-08-06T00:07:30;94869.97;;;14.13;100.00
27429;BME280;14881;48.092;11.574;2023-08-06T00:09:57;94873.97;;;14.15;100.00
27429;BME280;14881;48.092;11.574;2023-08-06T00:12:23;94859.84;;;14.13;100.00
27429;BME280;14881;48.092;11.574;2023-08-06T00:14:50;94861.28;;;14.11;100.00
27429;BME280;14881;48.092;11.574;2023-08-06T00:17:16;94860.81;;;14.09;100.00
27429;BME280;14881;48.092;11.574;2023-08-06T00:19:43;94867.88;;;14.10;100.00
27429;BME280;14881;48.092;11.574;2023-08-06T00:22:09;94861.97;;;13.99;100.00
27429;BME280;14881;48.092;11.574;2023-08-06T00:24:36;94871.16;;;13.94;100.00
27429;BME280;14881;48.092;11.574;2023-08-06T00:27:03;94863.91;;;13.90;100.00
27429;BME280;14881;48.092;11.574;2023-08-06T00:29:30;94870.19;;;13.90;100.00
27429;BME280;14881;48.092;11.574;2023-08-06T00:31:56;94876.78;;;13.89;100.00
27429;BME280;14881;48.092;11.574;2023-08-06T00:34:23;94867.97;;;13.84;100.00
27429;BME280;14881;48.092;11.574;2023-08-06T00:36:49;94874.25;;;13.84;100.00
27429;BME280;14881;48.092;11.574;2023-08-06T00:39:15;94867.31;;;13.87;100.00
27429;BME280;14881;48.092;11.574;2023-08-06T00:41:42;94864.13;;;13.85;100.00
27429;BME280;14881;48.092;11.574;2023-08-06T00:44:09;94863.50;;;13.71;100.00
27429;BME280;14881;48.092;11.574;2023-08-06T00:46:36;94855.34;;;13.53;100.00
27429;BME280;14881;48.092;11.574;2023-08-06T00:49:03;94854.84;;;13.51;100.00
27429;BME280;14881;48.092;11.574;2023-08-06T00:51:29;94856.78;;;13.59;100.00
27429;BME280;14881;48.092;11.574;2023-08-06T00:53:56;94847.91;;;13.71;100.00
27429;BME280;14881;48.092;11.574;2023-08-06T00:56:24;94856.75;;;13.68;100.00
27429;BME280;14881;48.092;11.574;2023-08-06T00:58:52;94857.22;;;13.70;100.00
27429;BME280;14881;48.092;11.574;2023-08-06T01:01:19;94859.03;;;13.66;100.00
27429;BME280;14881;48.092;11.574;2023-08-06T01:03:46;94854.38;;;13.67;100.00
27429;BME280;14881;48.092;11.574;2023-08-06T01:06:12;94853.41;;;13.63;100.00
27429;BME280;14881;48.092;11.574;2023-08-06T01:08:45;94850.84;;;13.57;100.00
27429;BME280;14881;48.092;11.574;2023-08-06T01:11:21;94852.78;;;13.57;100.00
27429;BME280;14881;48.092;11.574;2023-08-06T01:13:58;94841.38;;;13.55;100.00
27429;BME280;14881;48.092;11.574;2023-08-06T01:16:26;94844.63;;;13.48;100.00
27429;BME280;14881;48.092;11.574;2023-08-06T01:18:53;94832.41;;;13.37;100.00
27429;BME280;14881;48.092;11.574;2023-08-06T01:21:20;94838.84;;;13.50;100.00
27429;BME280;14881;48.092;11.574;2023-08-06T01:23:47;94829.03;;;13.49;100.00
27429;BME280;14881;48.092;11.574;2023-08-06T01:26:21;94827.59;;;13.43;100.00
27429;BME280;14881;48.092;11.574;2023-08-06T01:28:56;94826.63;;;13.47;100.00
27429;BME280;14881;48.092;11.574;2023-08-06T01:31:27;94825.50;;;13.48;100.00
27429;BME280;14881;48.092;11.574;2023-08-06T01:33:58;94823.91;;;13.47;100.00
27429;BME280;14881;48.092;11.574;2023-08-06T01:36:26;94816.03;;;13.46;100.00
27429;BME280;14881;48.092;11.574;2023-08-06T01:38:54;94808.50;;;13.43;100.00
27429;BME280;14881;48.092;11.574;2023-08-06T01:41:21;94820.06;;;13.40;100.00
27429;BME280;14881;48.092;11.574;2023-08-06T01:43:47;94824.72;;;13.39;100.00
27429;BME280;14881;48.092;11.574;2023-08-06T01:46:14;94824.38;;;13.41;100.00
27429;BME280;14881;48.092;11.574;2023-08-06T01:48:41;94816.69;;;13.43;100.00
27429;BME280;14881;48.092;11.574;2023-08-06T01:51:07;94818.44;;;13.39;100.00
27429;BME280;14881;48.092;11.574;2023-08-06T01:53:34;94816.84;;;13.38;100.00
27429;BME280;14881;48.092;11.574;2023-08-06T01:56:00;94814.75;;;13.35;100.00
27429;BME280;14881;48.092;11.574;2023-08-06T01:58:27;94808.84;;;13.33;100.00
27429;BME280;14881;48.092;11.574;2023-08-06T02:00:53;94814.47;;;13.28;100.00
27429;BME280;14881;48.092;11.574;2023-08-06T02:03:20;94814.94;;;13.21;100.00
27429;BME280;14881;48.092;11.574;2023-08-06T02:05:46;94806.28;;;13.19;100.00
27429;BME280;14881;48.092;11.574;2023-08-06T02:08:12;94807.72;;;13.16;100.00
27429;BME280;14881;48.092;11.574;2023-08-06T02:10:40;94799.69;;;13.11;100.00
27429;BME280;14881;48.092;11.574;2023-08-06T02:13:07;94802.09;;;13.13;100.00
27429;BME280;14881;48.092;11.574;2023-08-06T02:15:33;94796.97;;;13.11;100.00
27429;BME280;14881;48.092;11.574;2023-08-06T02:18:00;94792.97;;;13.09;100.00
27429;BME280;14881;48.092;11.574;2023-08-06T02:20:26;94792.47;;;13.07;100.00
27429;BME280;14881;48.092;11.574;2023-08-06T02:22:52;94787.81;;;13.07;100.00
27429;BME280;14881;48.092;11.574;2023-08-06T02:25:19;94788.16;;;13.06;100.00
27429;BME280;14881;48.092;11.574;2023-08-06T02:27:46;94785.75;;;13.04;100.00
27429;BME280;14881;48.092;11.574;2023-08-06T02:30:12;94777.06;;;13.02;100.00
27429;BME280;14881;48.092;11.574;2023-08-06T02:32:38;94774.66;;;13.01;100.00
27429;BME280;14881;48.092;11.574;2023-08-06T02:35:06;94771.94;;;13.01;100.00
27429;BME280;14881;48.092;11.574;2023-08-06T02:37:33;94766.34;;;12.97;100.00
27429;BME280;14881;48.092;11.574;2023-08-06T02:39:59;94766.69;;;12.96;100.00
27429;BME280;14881;48.092;11.574;2023-08-06T02:42:26;94759.94;;;12.93;100.00
27429;BME280;14881;48.092;11.574;2023-08-06T02:44:53;94753.53;;;12.89;100.00
27429;BME280;14881;48.092;11.574;2023-08-06T02:47:20;94754.00;;;12.91;100.00
27429;BME280;14881;48.092;11.574;2023-08-06T02:49:47;94735.56;;;12.88;100.00
27429;BME280;14881;48.092;11.574;2023-08-06T02:52:13;94737.47;;;12.87;100.00
27429;BME280;14881;48.092;11.574;2023-08-06T02:54:40;94730.44;;;12.86;100.00
27429;BME280;14881;48.092;11.574;2023-08-06T02:57:06;94722.09;;;12.83;100.00
27429;BME280;14881;48.092;11.574;2023-08-06T02:59:33;94727.88;;;12.81;100.00
27429;BME280;14881;48.092;11.574;2023-08-06T03:02:00;94727.09;;;12.81;100.00
27429;BME280;14881;48.092;11.574;2023-08-06T03:04:26;94726.75;;;12.82;100.00
27429;BME280;14881;48.092;11.574;2023-08-06T03:06:53;94732.88;;;12.79;100.00
27429;BME280;14881;48.092;11.574;2023-08-06T03:09:19;94728.84;;;12.77;100.00
27429;BME280;14881;48.092;11.574;2023-08-06T03:11:45;94729.16;;;12.75;100.00
27429;BME280;14881;48.092;11.574;2023-08-06T03:14:12;94733.03;;;12.74;100.00
27429;BME280;14881;48.092;11.574;2023-08-06T03:16:38;94748.56;;;12.74;100.00
27429;BME280;14881;48.092;11.574;2023-08-06T03:19:05;94743.44;;;12.72;100.00
27429;BME280;14881;48.092;11.574;2023-08-06T03:21:32;94748.41;;;12.70;100.00
27429;BME280;14881;48.092;11.574;2023-08-06T03:23:58;94740.88;;;12.67;100.00
27429;BME280;14881;48.092;11.574;2023-08-06T03:26:24;94744.38;;;12.68;100.00
27429;BME280;14881;48.092;11.574;2023-08-06T03:28:51;94745.19;;;12.68;100.00
27429;BME280;14881;48.092;11.574;2023-08-06T03:31:17;94750.31;;;12.70;100.00
27429;BME280;14881;48.092;11.574;2023-08-06T03:33:43;94746.31;;;12.67;100.00
27429;BME280;14881;48.092;11.574;2023-08-06T03:36:10;94734.13;;;12.65;100.00
27429;BME280;14881;48.092;11.574;2023-08-06T03:38:37;94734.63;;;12.67;100.00
27429;BME280;14881;48.092;11.574;2023-08-06T03:41:03;94731.88;;;12.67;100.00
27429;BME280;14881;48.092;11.574;2023-08-06T03:43:30;94730.28;;;12.66;100.00
27429;BME280;14881;48.092;11.574;2023-08-06T03:45:56;94733.50;;;12.59;100.00
27429;BME280;14881;48.092;11.574;2023-08-06T03:48:22;94741.84;;;12.63;100.00
27429;BME280;14881;48.092;11.574;2023-08-06T03:50:49;94731.59;;;12.60;100.00
27429;BME280;14881;48.092;11.574;2023-08-06T03:53:16;94730.31;;;12.57;100.00
27429;BME280;14881;48.092;11.574;2023-08-06T03:55:42;94724.84;;;12.57;100.00
27429;BME280;14881;48.092;11.574;2023-08-06T03:58:09;94724.84;;;12.57;100.00
27429;BME280;14881;48.092;11.574;2023-08-06T04:00:35;94730.31;;;12.57;100.00
27429;BME280;14881;48.092;11.574;2023-08-06T04:03:01;94729.81;;;12.55;100.00
27429;BME280;14881;48.092;11.574;2023-08-06T04:05:31;94728.22;;;12.54;100.00
27429;BME280;14881;48.092;11.574;2023-08-06T04:07:57;94721.16;;;12.53;100.00
27429;BME280;14881;48.092;11.574;2023-08-06T04:10:24;94716.66;;;12.48;100.00
27429;BME280;14881;48.092;11.574;2023-08-06T04:12:50;94714.75;;;12.49;100.00
27429;BME280;14881;48.092;11.574;2023-08-06T04:15:17;94720.34;;;12.52;100.00
27429;BME280;14881;48.092;11.574;2023-08-06T04:17:43;94714.75;;;12.49;100.00
27429;BME280;14881;48.092;11.574;2023-08-06T04:20:10;94717.00;;;12.55;100.00
27429;BME280;14881;48.092;11.574;2023-08-06T04:22:36;94717.97;;;12.60;100.00
27429;BME280;14881;48.092;11.574;2023-08-06T04:25:03;94715.25;;;12.60;100.00
27429;BME280;14881;48.092;11.574;2023-08-06T04:27:31;94719.56;;;12.61;100.00
27429;BME280;14881;48.092;11.574;2023-08-06T04:29:57;94721.81;;;12.59;100.00
27429;BME280;14881;48.092;11.574;2023-08-06T04:32:24;94716.34;;;12.59;100.00
27429;BME280;14881;48.092;11.574;2023-08-06T04:34:51;94722.13;;;12.57;100.00
27429;BME280;14881;48.092;11.574;2023-08-06T04:37:17;94723.56;;;12.63;100.00
27429;BME280;14881;48.092;11.574;2023-08-06T04:39:44;94734.13;;;12.65;100.00
27429;BME280;14881;48.092;11.574;2023-08-06T04:42:10;94742.66;;;12.63;100.00
27429;BME280;14881;48.092;11.574;2023-08-06T04:44:37;94738.00;;;12.64;100.00
27429;BME280;14881;48.092;11.574;2023-08-06T04:47:03;94729.34;;;12.62;100.00
27429;BME280;14881;48.092;11.574;2023-08-06T04:49:30;94736.84;;;12.65;100.00
27429;BME280;14881;48.092;11.574;2023-08-06T04:51:56;94728.34;;;12.66;100.00
27429;BME280;14881;48.092;11.574;2023-08-06T04:54:22;94733.03;;;12.74;100.00
27429;BME280;14881;48.092;11.574;2023-08-06T04:56:49;94727.56;;;12.74;100.00
27429;BME280;14881;48.092;11.574;2023-08-06T04:59:15;94720.50;;;12.73;100.00
27429;BME280;14881;48.092;11.574;2023-08-06T05:01:42;94723.09;;;12.78;100.00
27429;BME280;14881;48.092;11.574;2023-08-06T05:04:09;94726.13;;;12.68;100.00
27429;BME280;14881;48.092;11.574;2023-08-06T05:06:35;94722.91;;;12.75;100.00
27429;BME280;14881;48.092;11.574;2023-08-06T05:09:04;94726.75;;;12.74;100.00
27429;BME280;14881;48.092;11.574;2023-08-06T05:11:30;94725.81;;;12.78;100.00
27429;BME280;14881;48.092;11.574;2023-08-06T05:13:57;94722.41;;;12.81;100.00
27429;BME280;14881;48.092;11.574;2023-08-06T05:16:23;94713.28;;;12.86;100.00
27429;BME280;14881;48.092;11.574;2023-08-06T05:18:50;94711.66;;;12.85;100.00
27429;BME280;14881;48.092;11.574;2023-08-06T05:21:17;94722.09;;;12.92;100.00
27429;BME280;14881;48.092;11.574;2023-08-06T05:23:43;94731.22;;;12.96;100.00
27429;BME280;14881;48.092;11.574;2023-08-06T05:26:10;94722.72;;;12.97;100.00
27429;BME280;14881;48.092;11.574;2023-08-06T05:28:36;94719.19;;;12.97;100.00
27429;BME280;14881;48.092;11.574;2023-08-06T05:31:03;94726.25;;;12.98;100.00
27429;BME280;14881;48.092;11.574;2023-08-06T05:33:30;94734.44;;;12.98;100.00
27429;BME280;14881;48.092;11.574;2023-08-06T05:35:57;94741.63;;;13.02;100.00
27429;BME280;14881;48.092;11.574;2023-08-06T05:38:23;94731.19;;;13.04;100.00
27429;BME280;14881;48.092;11.574;2023-08-06T05:40:50;94730.56;;;13.07;100.00
27429;BME280;14881;48.092;11.574;2023-08-06T05:43:16;94731.53;;;13.11;100.00
27429;BME280;14881;48.092;11.574;2023-08-06T05:45:44;94737.16;;;13.15;100.00
27429;BME280;14881;48.092;11.574;2023-08-06T05:48:10;94736.66;;;13.21;100.00
27429;BME280;14881;48.092;11.574;2023-08-06T05:50:37;94722.38;;;13.24;100.00
27429;BME280;14881;48.092;11.574;2023-08-06T05:53:04;94721.41;;;13.29;100.00
27429;BME280;14881;48.092;11.574;2023-08-06T05:55:30;94718.94;;;13.36;100.00
27429;BME280;14881;48.092;11.574;2023-08-06T05:57:58;94716.84;;;13.42;100.00
27429;BME280;14881;48.092;11.574;2023-08-06T06:00:24;94723.75;;;13.48;100.00
27429;BME280;14881;48.092;11.574;2023-08-06T06:02:51;94718.06;;;13.53;100.00
27429;BME280;14881;48.092;11.574;2023-08-06T06:05:17;94718.84;;;13.62;100.00
27429;BME280;14881;48.092;11.574;2023-08-06T06:07:43;94718.31;;;13.69;100.00
27429;BME280;14881;48.092;11.574;2023-08-06T06:10:10;94714.94;;;13.72;100.00
27429;BME280;14881;48.092;11.574;2023-08-06T06:12:38;94717.66;;;13.80;100.00
27429;BME280;14881;48.092;11.574;2023-08-06T06:15:05;94714.06;;;13.88;100.00
27429;BME280;14881;48.092;11.574;2023-08-06T06:17:32;94719.50;;;13.88;100.00
27429;BME280;14881;48.092;11.574;2023-08-06T06:19:59;94713.22;;;13.97;100.00
27429;BME280;14881;48.092;11.574;2023-08-06T06:22:25;94719.75;;;14.04;100.00
27429;BME280;14881;48.092;11.574;2023-08-06T06:24:51;94709.84;;;14.00;100.00
27429;BME280;14881;48.092;11.574;2023-08-06T06:27:18;94710.63;;;14.00;100.00
27429;BME280;14881;48.092;11.574;2023-08-06T06:29:45;94712.44;;;13.87;100.00
27429;BME280;14881;48.092;11.574;2023-08-06T06:32:11;94715.97;;;13.88;100.00
27429;BME280;14881;48.092;11.574;2023-08-06T06:34:37;94713.84;;;14.02;100.00
27429;BME280;14881;48.092;11.574;2023-08-06T06:37:04;94712.63;;;14.12;100.00
27429;BME280;14881;48.092;11.574;2023-08-06T06:39:31;94722.38;;;14.21;100.00
27429;BME280;14881;48.092;11.574;2023-08-06T06:41:57;94711.88;;;14.32;100.00
27429;BME280;14881;48.092;11.574;2023-08-06T06:44:24;94706.41;;;14.32;100.00
27429;BME280;14881;48.092;11.574;2023-08-06T06:46:51;94713.94;;;14.35;100.00
27429;BME280;14881;48.092;11.574;2023-08-06T06:49:17;94702.50;;;14.42;100.00
27429;BME280;14881;48.092;11.574;2023-08-06T06:51:43;94707.63;;;14.43;100.00
27429;BME280;14881;48.092;11.574;2023-08-06T06:54:10;94709.47;;;14.72;100.00
27429;BME280;14881;48.092;11.574;2023-08-06T06:56:37;94712.59;;;14.83;100.00
27429;BME280;14881;48.092;11.574;2023-08-06T06:59:03;94701.06;;;14.77;100.00
27429;BME280;14881;48.092;11.574;2023-08-06T07:01:30;94717.13;;;14.79;100.00
27429;BME280;14881;48.092;11.574;2023-08-06T07:03:57;94708.63;;;14.92;100.00
27429;BME280;14881;48.092;11.574;2023-08-06T07:06:23;94698.75;;;15.00;100.00
27429;BME280;14881;48.092;11.574;2023-08-06T07:08:50;94701.59;;;15.37;100.00
27429;BME280;14881;48.092;11.574;2023-08-06T07:11:16;94691.50;;;15.74;100.00
27429;BME280;14881;48.092;11.574;2023-08-06T07:13:43;94680.19;;;15.99;100.00
27429;BME280;14881;48.092;11.574;2023-08-06T07:16:09;94691.47;;;16.22;100.00
27429;BME280;14881;48.092;11.574;2023-08-06T07:18:38;94684.84;;;16.11;100.00
27429;BME280;14881;48.092;11.574;2023-08-06T07:21:04;94696.31;;;15.89;100.00
27429;BME280;14881;48.092;11.574;2023-08-06T07:23:31;94700.50;;;15.62;100.00
27429;BME280;14881;48.092;11.574;2023-08-06T07:25:57;94709.94;;;15.40;100.00
27429;BME280;14881;48.092;11.574;2023-08-06T07:28:23;94716.97;;;14.96;100.00
27429;BME280;14881;48.092;11.574;2023-08-06T07:30:50;94728.88;;;14.79;100.00
27429;BME280;14881;48.092;11.574;2023-08-06T07:33:17;94729.69;;;14.59;100.00
27429;BME280;14881;48.092;11.574;2023-08-06T07:35:44;94730.00;;;14.57;100.00
27429;BME280;14881;48.092;11.574;2023-08-06T07:38:10;94730.75;;;14.67;100.00
27429;BME280;14881;48.092;11.574;2023-08-06T07:40:37;94723.09;;;14.60;100.00
27429;BME280;14881;48.092;11.574;2023-08-06T07:43:03;94724.69;;;14.61;100.00
27429;BME280;14881;48.092;11.574;2023-08-06T07:45:33;94710.03;;;14.66;100.00
27429;BME280;14881;48.092;11.574;2023-08-06T07:47:59;94709.94;;;14.74;100.00
27429;BME280;14881;48.092;11.574;2023-08-06T07:50:26;94714.88;;;14.81;100.00
27429;BME280;14881;48.092;11.574;2023-08-06T07:52:53;94708.06;;;14.87;100.00
27429;BME280;14881;48.092;11.574;2023-08-06T07:55:20;94701.47;;;14.88;100.00
27429;BME280;14881;48.092;11.574;2023-08-06T07:57:46;94703.28;;;14.96;100.00
27429;BME280;14881;48.092;11.574;2023-08-06T08:00:12;94700.81;;;15.03;100.00
27429;BME280;14881;48.092;11.574;2023-08-06T08:02:39;94706.66;;;15.14;100.00
27429;BME280;14881;48.092;11.574;2023-08-06T08:05:06;94695.53;;;15.31;100.00
27429;BME280;14881;48.092;11.574;2023-08-06T08:07:34;94684.94;;;15.42;100.00
27429;BME280;14881;48.092;11.574;2023-08-06T08:10:01;94681.25;;;15.58;100.00
27429;BME280;14881;48.092;11.574;2023-08-06T08:12:27;94685.09;;;15.82;100.00
27429;BME280;14881;48.092;11.574;2023-08-06T08:14:53;94674.72;;;15.99;100.00
27429;BME280;14881;48.092;11.574;2023-08-06T08:17:21;94662.22;;;16.26;100.00
27429;BME280;14881;48.092;11.574;2023-08-06T08:19:47;94660.00;;;16.44;100.00
27429;BME280;14881;48.092;11.574;2023-08-06T08:22:14;94653.19;;;16.66;100.00
27429;BME280;14881;48.092;11.574;2023-08-06T08:27:23;94641.47;;;17.40;100.00
27429;BME280;14881;48.092;11.574;2023-08-06T08:29:50;94636.34;;;17.55;100.00
27429;BME280;14881;48.092;11.574;2023-08-06T08:32:16;94624.75;;;17.77;100.00
27429;BME280;14881;48.092;11.574;2023-08-06T08:34:43;94627.75;;;17.72;100.00
27429;BME280;14881;48.092;11.574;2023-08-06T08:37:10;94614.56;;;17.78;100.00
27429;BME280;14881;48.092;11.574;2023-08-06T08:39:36;94627.84;;;17.60;100.00
27429;BME280;14881;48.092;11.574;2023-08-06T08:42:03;94620.47;;;17.32;100.00
27429;BME280;14881;48.092;11.574;2023-08-06T08:44:31;94629.69;;;17.09;100.00
27429;BME280;14881;48.092;11.574;2023-08-06T08:46:58;94631.50;;;16.89;100.00
27429;BME280;14881;48.092;11.574;2023-08-06T08:49:26;94637.09;;;16.64;100.00
27429;BME280;14881;48.092;11.574;2023-08-06T08:51:54;94645.31;;;16.64;100.00
27429;BME280;14881;48.092;11.574;2023-08-06T08:54:23;94648.59;;;16.42;100.00
27429;BME280;14881;48.092;11.574;2023-08-06T08:56:50;94645.97;;;16.33;100.00
27429;BME280;14881;48.092;11.574;2023-08-06T08:59:16;94641.34;;;16.50;100.00
27429;BME280;14881;48.092;11.574;2023-08-06T09:01:45;94639.38;;;16.90;100.00
27429;BME280;14881;48.092;11.574;2023-08-06T09:04:16;94641.09;;;17.11;100.00
27429;BME280;14881;48.092;11.574;2023-08-06T09:06:43;94644.81;;;17.18;100.00
27429;BME280;14881;48.092;11.574;2023-08-06T09:09:15;94652.78;;;17.08;100.00
27429;BME280;14881;48.092;11.574;2023-08-06T09:11:44;94666.22;;;16.69;100.00
27429;BME280;14881;48.092;11.574;2023-08-06T09:14:11;94686.78;;;16.23;100.00
27429;BME280;14881;48.092;11.574;2023-08-06T09:16:38;94690.22;;;15.95;100.00
27429;BME280;14881;48.092;11.574;2023-08-06T09:19:08;94695.47;;;15.64;100.00
27429;BME280;14881;48.092;11.574;2023-08-06T09:21:37;94699.47;;;15.66;100.00
27429;BME280;14881;48.092;11.574;2023-08-06T09:24:07;94683.63;;;15.84;100.00
27429;BME280;14881;48.092;11.574;2023-08-06T09:26:35;94689.44;;;15.83;100.00
27429;BME280;14881;48.092;11.574;2023-08-06T09:29:05;94685.56;;;15.72;100.00
27429;BME280;14881;48.092;11.574;2023-08-06T09:31:32;94690.81;;;15.77;100.00
27429;BME280;14881;48.092;11.574;2023-08-06T09:33:59;94687.16;;;15.85;100.00
27429;BME280;14881;48.092;11.574;2023-08-06T09:36:27;94678.59;;;15.98;100.00
27429;BME280;14881;48.092;11.574;2023-08-06T09:38:53;94678.78;;;16.18;100.00
27429;BME280;14881;48.092;11.574;2023-08-06T09:41:26;94668.81;;;16.38;100.00
27429;BME280;14881;48.092;11.574;2023-08-06T09:43:53;94677.44;;;16.52;100.00
27429;BME280;14881;48.092;11.574;2023-08-06T09:46:20;94672.00;;;16.80;100.00
27429;BME280;14881;48.092;11.574;2023-08-06T09:48:48;94668.47;;;17.23;100.00
27429;BME280;14881;48.092;11.574;2023-08-06T09:51:14;94662.66;;;17.24;100.00
27429;BME280;14881;48.092;11.574;2023-08-06T09:53:42;94656.44;;;17.27;100.00
27429;BME280;14881;48.092;11.574;2023-08-06T09:56:09;94661.59;;;17.29;100.00
27429;BME280;14881;48.092;11.574;2023-08-06T09:58:36;94671.22;;;17.23;100.00
27429;BME280;14881;48.092;11.574;2023-08-06T10:01:04;94667.88;;;17.14;100.00
27429;BME280;14881;48.092;11.574;2023-08-06T10:03:32;94673.03;;;17.03;100.00
27429;BME280;14881;48.092;11.574;2023-08-06T10:06:00;94661.94;;;16.84;100.00
27429;BME280;14881;48.092;11.574;2023-08-06T10:08:28;94671.50;;;16.62;100.00
27429;BME280;14881;48.092;11.574;2023-08-06T10:10:55;94678.09;;;16.73;100.00
27429;BME280;14881;48.092;11.574;2023-08-06T10:13:23;94684.72;;;16.72;100.00
27429;BME280;14881;48.092;11.574;2023-08-06T10:15:50;94683.59;;;16.73;100.00
27429;BME280;14881;48.092;11.574;2023-08-06T10:18:17;94680.91;;;16.89;100.00
27429;BME280;14881;48.092;11.574;2023-08-06T10:20:47;94675.81;;;16.75;100.00
27429;BME280;14881;48.092;11.574;2023-08-06T10:23:13;94683.25;;;16.75;100.00
27429;BME280;14881;48.092;11.574;2023-08-06T10:25:42;94683.88;;;16.84;100.00
27429;BME280;14881;48.092;11.574;2023-08-06T10:28:10;94674.66;;;16.76;100.00
27429;BME280;14881;48.092;11.574;2023-08-06T10:30:44;94684.09;;;16.91;100.00
27429;BME280;14881;48.092;11.574;2023-08-06T10:33:11;94671.03;;;17.16;100.00
27429;BME280;14881;48.092;11.574;2023-08-06T10:35:40;94671.69;;;17.25;100.00
27429;BME280;14881;48.092;11.574;2023-08-06T10:38:10;94674.84;;;17.11;100.00
27429;BME280;14881;48.092;11.574;2023-08-06T10:40:39;94696.97;;;17.18;100.00
27429;BME280;14881;48.092;11.574;2023-08-06T10:43:06;94682.97;;;17.08;100.00
27429;BME280;14881;48.092;11.574;2023-08-06T10:45:37;94691.53;;;16.90;100.00
27429;BME280;14881;48.092;11.574;2023-08-06T10:48:04;94666.69;;;16.71;100.00
27429;BME280;14881;48.092;11.574;2023-08-06T10:50:31;94686.44;;;16.77;100.00
27429;BME280;14881;48.092;11.574;2023-08-06T10:53:04;94682.31;;;16.98;100.00
27429;BME280;14881;48.092;11.574;2023-08-06T10:55:30;94673.63;;;17.40;100.00
27429;BME280;14881;48.092;11.574;2023-08-06T10:57:57;94675.81;;;17.78;100.00
27429;BME280;14881;48.092;11.574;2023-08-06T11:00:24;94681.09;;;17.87;100.00
27429;BME280;14881;48.092;11.574;2023-08-06T11:02:53;94674.31;;;18.31;100.00
27429;BME280;14881;48.092;11.574;2023-08-06T11:05:19;94662.28;;;18.74;100.00
27429;BME280;14881;48.092;11.574;2023-08-06T11:07:46;94664.50;;;18.88;100.00
27429;BME280;14881;48.092;11.574;2023-08-06T11:10:13;94678.84;;;18.59;100.00
27429;BME280;14881;48.092;11.574;2023-08-06T11:12:40;94663.53;;;18.42;100.00
27429;BME280;14881;48.092;11.574;2023-08-06T11:15:07;94689.59;;;18.13;100.00
27429;BME280;14881;48.092;11.574;2023-08-06T11:17:34;94689.19;;;17.80;100.00
27429;BME280;14881;48.092;11.574;2023-08-06T11:20:04;94675.44;;;17.48;100.00
27429;BME280;14881;48.092;11.574;2023-08-06T11:22:31;94688.94;;;17.25;100.00
27429;BME280;14881;48.092;11.574;2023-08-06T11:24:58;94698.09;;;17.01;100.00
27429;BME280;14881;48.092;11.574;2023-08-06T11:27:27;94713.47;;;16.90;100.00
27429;BME280;14881;48.092;11.574;2023-08-06T11:29:54;94732.56;;;16.87;100.00
27429;BME280;14881;48.092;11.574;2023-08-06T11:32:20;94707.88;;;17.15;100.00
27429;BME280;14881;48.092;11.574;2023-08-06T11:34:47;94705.84;;;17.12;100.00
27429;BME280;14881;48.092;11.574;2023-08-06T11:37:14;94721.50;;;16.83;100.00
27429;BME280;14881;48.092;11.574;2023-08-06T11:39:46;94715.03;;;16.51;100.00
27429;BME280;14881;48.092;11.574;2023-08-06T11:42:12;94719.50;;;16.56;100.00
27429;BME280;14881;48.092;11.574;2023-08-06T11:44:41;94720.69;;;16.43;100.00
27429;BME280;14881;48.092;11.574;2023-08-06T11:47:13;94716.66;;;16.52;100.00
27429;BME280;14881;48.092;11.574;2023-08-06T11:49:42;94738.25;;;16.54;100.00
27429;BME280;14881;48.092;11.574;2023-08-06T11:52:14;94737.59;;;16.45;100.00
27429;BME280;14881;48.092;11.574;2023-08-06T11:54:41;94725.66;;;16.53;100.00
27429;BME280;14881;48.092;11.574;2023-08-06T11:57:08;94726.25;;;16.58;100.00
27429;BME280;14881;48.092;11.574;2023-08-06T11:59:34;94724.53;;;16.66;100.00
27429;BME280;14881;48.092;11.574;2023-08-06T12:02:02;94739.59;;;16.60;100.00
27429;BME280;14881;48.092;11.574;2023-08-06T12:04:28;94741.22;;;16.49;100.00
27429;BME280;14881;48.092;11.574;2023-08-06T12:06:55;94746.38;;;16.38;100.00
27429;BME280;14881;48.092;11.574;2023-08-06T12:09:22;94740.91;;;16.38;100.00
27429;BME280;14881;48.092;11.574;2023-08-06T12:11:49;94751.19;;;16.41;100.00
27429;BME280;14881;48.092;11.574;2023-08-06T12:14:15;94749.91;;;16.51;100.00
27429;BME280;14881;48.092;11.574;2023-08-06T12:16:41;94743.75;;;16.42;100.00
27429;BME280;14881;48.092;11.574;2023-08-06T12:19:08;94743.75;;;16.29;100.00
27429;BME280;14881;48.092;11.574;2023-08-06T12:21:34;94752.31;;;16.28;100.00
27429;BME280;14881;48.092;11.574;2023-08-06T12:24:01;94746.41;;;16.26;100.00
27429;BME280;14881;48.092;11.574;2023-08-06T12:26:28;94751.22;;;16.05;100.00
27429;BME280;14881;48.092;11.574;2023-08-06T12:28:54;94750.84;;;15.94;100.00
27429;BME280;14881;48.092;11.574;2023-08-06T12:31:22;94741.72;;;16.02;100.00
27429;BME280;14881;48.092;11.574;2023-08-06T12:33:49;94739.53;;;15.95;100.00
27429;BME280;14881;48.092;11.574;2023-08-06T12:36:15;94748.91;;;15.94;100.00
27429;BME280;14881;48.092;11.574;2023-08-06T12:38:41;94737.72;;;15.99;100.00
27429;BME280;14881;48.092;11.574;2023-08-06T12:41:08;94737.03;;;16.02;100.00